Time;durP1;ratioP1;P1;durP2;ratioP2;P2;SDS_P1;SDS_P2;PMS_P1;PMS_P2;Temp;Humidity;BMP_temperature;BMP_pressure;BME280_temperature;BME280_humidity;BME280_pressure;Samples;Min_cycle;Max_cycle;Signal;HPM_P1;HPM_P2
2023/07/10 00:00:55;;;;;;;;;3.00;3.00;;;;;;;;5030702;28;8824;-85
2023/07/10 00:03:22;;;;;;;;;3.00;2.75;;;;;;;;5031325;28;8835;-83
2023/07/10 00:05:50;;;;;;;;;2.75;2.75;;;;;;;;5031152;28;8862;-88
2023/07/10 00:08:18;;;;;;;;;4.00;0.75;;;;;;;;5032818;28;8870;-86
2023/07/10 00:10:46;;;;;;;;;4.50;1.75;;;;;;;;5035184;28;8900;-85
2023/07/10 00:13:14;;;;;;;;;4.50;2.75;;;;;;;;5035175;28;8858;-87
2023/07/10 00:15:44;;;;;;;;;4.25;4.00;;;;;;;;5034430;28;9760;-87
2023/07/10 00:18:15;;;;;;;;;0.75;0.75;;;;;;;;5032515;28;8842;-85
2023/07/10 00:20:43;;;;;;;;;3.25;3.25;;;;;;;;5031653;28;8842;-86
2023/07/10 00:23:11;;;;;;;;;2.25;2.00;;;;;;;;5031109;28;8853;-83
2023/07/10 00:25:41;;;;;;;;;4.00;4.00;;;;;;;;5031285;28;8977;-86
2023/07/10 00:28:15;;;;;;;;;2.25;2.25;;;;;;;;5031034;28;8862;-87
2023/07/10 00:30:45;;;;;;;;;5.50;3.75;;;;;;;;5030724;28;8784;-88
2023/07/10 00:33:13;;;;;;;;;3.25;3.25;;;;;;;;5031501;28;8856;-85
2023/07/10 00:35:43;;;;;;;;;2.75;2.75;;;;;;;;5031338;28;8860;-92
2023/07/10 00:38:19;;;;;;;;;3.00;3.00;;;;;;;;5031175;28;8864;-88
2023/07/10 00:40:49;;;;;;;;;3.25;3.25;;;;;;;;5030467;28;8947;-84
2023/07/10 00:43:33;;;;;;;;;5.25;3.75;;;;;;;;5030963;28;8898;-83
2023/07/10 00:46:12;;;;;;;;;4.00;2.75;;;;;;;;5030306;28;8860;-82
2023/07/10 00:48:42;;;;;;;;;4.00;4.00;;;;;;;;5030822;28;8844;-83
2023/07/10 00:51:17;;;;;;;;;8.75;6.50;;;;;;;;5030727;28;8907;-83
2023/07/10 00:53:46;;;;;;;;;2.00;1.75;;;;;;;;5030174;28;8966;-84
2023/07/10 00:56:19;;;;;;;;;3.00;3.00;;;;;;;;5030206;28;8864;-83
2023/07/10 00:58:50;;;;;;;;;7.00;3.25;;;;;;;;5030320;28;9814;-83
2023/07/10 01:01:19;;;;;;;;;7.25;4.00;;;;;;;;5030040;28;8792;-82
2023/07/10 01:03:50;;;;;;;;;3.00;3.00;;;;;;;;5031739;28;8887;-82
2023/07/10 01:06:20;;;;;;;;;3.00;3.00;;;;;;;;5032230;28;8898;-83
2023/07/10 01:08:52;;;;;;;;;3.00;3.00;;;;;;;;5034431;28;8856;-83
2023/07/10 01:11:23;;;;;;;;;6.50;3.50;;;;;;;;5034094;28;8859;-81
2023/07/10 01:13:53;;;;;;;;;3.00;3.00;;;;;;;;5034160;28;8961;-81
2023/07/10 01:16:21;;;;;;;;;2.00;2.00;;;;;;;;5033847;28;8929;-85
2023/07/10 01:18:48;;;;;;;;;5.75;4.00;;;;;;;;5031580;28;8995;-86
2023/07/10 01:21:23;;;;;;;;;4.00;3.00;;;;;;;;5030393;28;8864;-84
2023/07/10 01:23:50;;;;;;;;;3.50;3.50;;;;;;;;5029995;28;8874;-83
2023/07/10 01:26:18;;;;;;;;;3.00;3.00;;;;;;;;5030477;28;8894;-85
2023/07/10 01:28:46;;;;;;;;;3.25;2.75;;;;;;;;5031007;28;8967;-83
2023/07/10 01:31:15;;;;;;;;;3.25;3.25;;;;;;;;5033616;28;8788;-82
2023/07/10 01:33:48;;;;;;;;;3.50;3.00;;;;;;;;5035006;28;9003;-89
2023/07/10 01:36:19;;;;;;;;;3.75;3.75;;;;;;;;5034334;28;8836;-82
2023/07/10 01:38:48;;;;;;;;;3.00;3.00;;;;;;;;5034041;28;8845;-82
2023/07/10 01:41:28;;;;;;;;;4.75;4.00;;;;;;;;5033852;28;8852;-83
2023/07/10 01:43:55;;;;;;;;;3.00;3.00;;;;;;;;5035750;28;8878;-84
2023/07/10 01:46:26;;;;;;;;;4.50;2.75;;;;;;;;5040654;28;9640;-85
2023/07/10 01:48:57;;;;;;;;;4.50;3.00;;;;;;;;5057016;28;8849;-83
2023/07/10 01:51:26;;;;;;;;;3.25;2.75;;;;;;;;5057182;28;8865;-84
2023/07/10 01:53:53;;;;;;;;;3.00;2.50;;;;;;;;5055150;28;8857;-85
2023/07/10 01:56:22;;;;;;;;;6.25;3.00;;;;;;;;5054266;28;8869;-85
2023/07/10 01:58:49;;;;;;;;;4.25;4.00;;;;;;;;5053698;28;8862;-85
2023/07/10 02:01:17;;;;;;;;;5.00;3.00;;;;;;;;5052658;28;8871;-89
2023/07/10 02:03:44;;;;;;;;;6.00;4.50;;;;;;;;5053678;28;8845;-91
2023/07/10 02:06:12;;;;;;;;;5.00;4.00;;;;;;;;5054063;28;8888;-84
2023/07/10 02:08:41;;;;;;;;;4.75;3.75;;;;;;;;5056752;28;8876;-89
2023/07/10 02:11:08;;;;;;;;;5.00;3.75;;;;;;;;5056211;28;8873;-86
2023/07/10 02:13:36;;;;;;;;;3.25;3.25;;;;;;;;5055005;28;8865;-87
2023/07/10 02:16:04;;;;;;;;;3.00;3.00;;;;;;;;5053626;28;8853;-87
2023/07/10 02:18:31;;;;;;;;;4.75;3.25;;;;;;;;5053172;28;8861;-84
2023/07/10 02:20:59;;;;;;;;;2.50;2.50;;;;;;;;5053718;28;8837;-91
2023/07/10 02:23:26;;;;;;;;;3.75;3.00;;;;;;;;5053246;28;8868;-90
2023/07/10 02:25:56;;;;;;;;;4.75;2.00;;;;;;;;5053001;28;8854;-83
2023/07/10 02:28:23;;;;;;;;;2.50;2.00;;;;;;;;5053715;28;8881;-83
2023/07/10 02:30:53;;;;;;;;;3.00;1.75;;;;;;;;5053316;28;9548;-82
2023/07/10 02:33:22;;;;;;;;;3.75;2.50;;;;;;;;5053064;28;8964;-82
2023/07/10 02:35:50;;;;;;;;;3.75;3.75;;;;;;;;5053008;28;8876;-82
2023/07/10 02:38:17;;;;;;;;;3.75;2.75;;;;;;;;5053323;28;8857;-83
2023/07/10 02:40:46;;;;;;;;;7.50;4.25;;;;;;;;5054626;28;8865;-84
2023/07/10 02:43:15;;;;;;;;;7.75;3.50;;;;;;;;5056806;28;8845;-82
2023/07/10 02:45:45;;;;;;;;;4.00;2.50;;;;;;;;5056773;28;8862;-82
2023/07/10 02:48:15;;;;;;;;;5.50;2.00;;;;;;;;5056649;28;8850;-81
2023/07/10 02:50:43;;;;;;;;;2.25;1.75;;;;;;;;5055121;28;8837;-83
2023/07/10 02:53:11;;;;;;;;;5.50;3.75;;;;;;;;5053721;28;8982;-87
2023/07/10 02:55:39;;;;;;;;;4.75;4.00;;;;;;;;5053702;28;8873;-86
2023/07/10 02:58:07;;;;;;;;;6.50;3.25;;;;;;;;5052311;28;8861;-84
2023/07/10 03:00:36;;;;;;;;;4.25;4.00;;;;;;;;5051476;28;8904;-86
2023/07/10 03:03:03;;;;;;;;;6.75;3.25;;;;;;;;5051950;28;8857;-85
2023/07/10 03:05:31;;;;;;;;;6.25;2.75;;;;;;;;5052397;28;8992;-85
2023/07/10 03:07:58;;;;;;;;;4.75;4.75;;;;;;;;5052285;28;8873;-83
2023/07/10 03:10:26;;;;;;;;;3.75;3.75;;;;;;;;5051853;28;8972;-82
2023/07/10 03:12:53;;;;;;;;;3.00;3.00;;;;;;;;5052074;28;8861;-83
2023/07/10 03:15:20;;;;;;;;;4.00;2.00;;;;;;;;5051907;28;8869;-84
2023/07/10 03:17:49;;;;;;;;;3.75;3.00;;;;;;;;5052207;28;8861;-84
2023/07/10 03:20:16;;;;;;;;;2.75;2.75;;;;;;;;5052730;28;9623;-83
2023/07/10 03:22:43;;;;;;;;;2.75;2.50;;;;;;;;5054361;28;9650;-84
2023/07/10 03:25:19;;;;;;;;;2.50;2.50;;;;;;;;5055724;28;8865;-83
2023/07/10 03:27:50;;;;;;;;;3.75;3.75;;;;;;;;5056366;28;8996;-86
2023/07/10 03:30:18;;;;;;;;;4.00;4.00;;;;;;;;5054375;28;8872;-83
2023/07/10 03:32:45;;;;;;;;;3.75;2.00;;;;;;;;5052424;28;8968;-83
2023/07/10 03:35:14;;;;;;;;;4.25;2.50;;;;;;;;5051462;28;8919;-83
2023/07/10 03:37:42;;;;;;;;;3.25;3.25;;;;;;;;5051514;28;8888;-84
2023/07/10 03:40:14;;;;;;;;;3.75;2.25;;;;;;;;5051758;28;8896;-83
2023/07/10 03:42:42;;;;;;;;;4.50;3.00;;;;;;;;5051514;28;8857;-87
2023/07/10 03:45:11;;;;;;;;;4.00;2.50;;;;;;;;5051441;28;8877;-89
2023/07/10 03:47:38;;;;;;;;;4.00;2.00;;;;;;;;5051256;28;8861;-88
2023/07/10 03:50:07;;;;;;;;;3.00;3.00;;;;;;;;5049882;28;8966;-86
2023/07/10 03:52:39;;;;;;;;;9.00;3.00;;;;;;;;5050400;28;8863;-86
2023/07/10 03:55:07;;;;;;;;;4.50;3.00;;;;;;;;5051107;28;8967;-87
2023/07/10 03:57:34;;;;;;;;;5.50;2.00;;;;;;;;5051037;28;8861;-86
2023/07/10 04:00:04;;;;;;;;;3.00;3.00;;;;;;;;5050597;28;8849;-87
2023/07/10 04:02:31;;;;;;;;;3.75;3.75;;;;;;;;5049807;28;8923;-90
2023/07/10 04:04:59;;;;;;;;;4.00;4.00;;;;;;;;5050773;28;8881;-80
2023/07/10 04:07:26;;;;;;;;;3.25;3.25;;;;;;;;5058053;28;8980;-79
2023/07/10 04:09:54;;;;;;;;;4.75;4.75;;;;;;;;5051561;28;8977;-82
2023/07/10 04:12:22;;;;;;;;;3.00;3.00;;;;;;;;5050790;28;8853;-87
2023/07/10 04:14:51;;;;;;;;;5.75;4.00;;;;;;;;5051580;28;8857;-79
2023/07/10 04:17:18;;;;;;;;;5.00;2.75;;;;;;;;5052301;28;8861;-85
2023/07/10 04:19:46;;;;;;;;;8.00;6.00;;;;;;;;5053093;28;8850;-83
2023/07/10 04:22:16;;;;;;;;;3.00;2.75;;;;;;;;5054541;28;9727;-84
2023/07/10 04:24:44;;;;;;;;;7.75;3.00;;;;;;;;5055193;28;8853;-83
2023/07/10 04:27:13;;;;;;;;;3.75;3.75;;;;;;;;5055380;28;9324;-86
2023/07/10 04:29:40;;;;;;;;;4.00;3.00;;;;;;;;5053295;28;8875;-84
2023/07/10 04:32:09;;;;;;;;;3.00;3.00;;;;;;;;5050783;28;8797;-85
2023/07/10 04:34:36;;;;;;;;;3.25;3.25;;;;;;;;5050941;28;8968;-83
2023/07/10 04:37:03;;;;;;;;;4.00;4.00;;;;;;;;5050125;28;8979;-84
2023/07/10 04:39:30;;;;;;;;;2.75;1.75;;;;;;;;5050098;28;8857;-82
2023/07/10 04:41:58;;;;;;;;;2.00;2.00;;;;;;;;5049641;28;9625;-83
2023/07/10 04:44:26;;;;;;;;;4.50;3.00;;;;;;;;5049940;28;8884;-79
2023/07/10 04:46:53;;;;;;;;;7.00;4.50;;;;;;;;5049693;28;8845;-84
2023/07/10 04:49:20;;;;;;;;;4.00;4.00;;;;;;;;5050271;28;9662;-81
2023/07/10 04:51:48;;;;;;;;;5.75;4.25;;;;;;;;5050396;28;8850;-80
2023/07/10 04:54:15;;;;;;;;;6.75;3.75;;;;;;;;5049988;28;9008;-83
2023/07/10 04:56:42;;;;;;;;;4.50;3.25;;;;;;;;5050231;28;9445;-86
2023/07/10 04:59:09;;;;;;;;;5.00;5.00;;;;;;;;5051613;28;8881;-84
2023/07/10 05:01:38;;;;;;;;;2.75;2.75;;;;;;;;5051349;28;8793;-77
2023/07/10 05:04:05;;;;;;;;;6.75;5.00;;;;;;;;5052381;28;8918;-84
2023/07/10 05:06:32;;;;;;;;;3.50;3.50;;;;;;;;5050627;28;8861;-77
2023/07/10 05:09:00;;;;;;;;;4.00;4.00;;;;;;;;5049668;28;8935;-85
2023/07/10 05:11:29;;;;;;;;;4.75;3.50;;;;;;;;5049721;28;8849;-84
2023/07/10 05:13:56;;;;;;;;;7.00;4.75;;;;;;;;5049510;28;8881;-75
2023/07/10 05:16:24;;;;;;;;;7.50;4.50;;;;;;;;5050103;28;8869;-77
2023/07/10 05:18:53;;;;;;;;;3.50;3.00;;;;;;;;5050417;28;8873;-91
2023/07/10 05:21:21;;;;;;;;;1.75;1.75;;;;;;;;5050075;28;8973;-80
2023/07/10 05:23:49;;;;;;;;;5.00;5.00;;;;;;;;5050864;28;8939;-77
2023/07/10 05:26:19;;;;;;;;;5.75;5.25;;;;;;;;5051172;28;8861;-85
2023/07/10 05:28:52;;;;;;;;;4.75;4.25;;;;;;;;5050916;28;8873;-88
2023/07/10 05:31:24;;;;;;;;;3.75;3.00;;;;;;;;5049661;28;8782;-89
2023/07/10 05:34:04;;;;;;;;;5.25;5.00;;;;;;;;5050181;28;8984;-85
2023/07/10 05:36:37;;;;;;;;;4.25;4.25;;;;;;;;5050558;28;8842;-88
2023/07/10 05:39:05;;;;;;;;;4.50;3.00;;;;;;;;5050491;28;8888;-87
2023/07/10 05:41:33;;;;;;;;;3.75;3.75;;;;;;;;5050272;28;8845;-88
2023/07/10 05:44:08;;;;;;;;;5.25;5.25;;;;;;;;5050522;28;8849;-90
2023/07/10 05:46:35;;;;;;;;;5.25;5.25;;;;;;;;5050339;28;8857;-87
2023/07/10 05:49:07;;;;;;;;;8.00;7.00;;;;;;;;5050891;28;8889;-85
2023/07/10 05:51:35;;;;;;;;;6.00;6.00;;;;;;;;5051620;28;8861;-83
2023/07/10 05:54:03;;;;;;;;;6.00;6.00;;;;;;;;5052212;28;8873;-88
2023/07/10 05:59:26;;;;;;;;;8.00;6.00;;;;;;;;5051223;28;9019;-89
2023/07/10 06:01:57;;;;;;;;;5.00;5.00;;;;;;;;5051985;28;8932;-87
2023/07/10 06:04:27;;;;;;;;;4.75;4.75;;;;;;;;5052617;28;8870;-87
2023/07/10 06:06:55;;;;;;;;;5.75;5.75;;;;;;;;5050953;28;8874;-90
2023/07/10 06:09:25;;;;;;;;;6.50;6.50;;;;;;;;5051071;28;8939;-86
2023/07/10 06:11:56;;;;;;;;;7.75;6.00;;;;;;;;5049889;28;8933;-88
2023/07/10 06:14:23;;;;;;;;;7.00;6.75;;;;;;;;5051258;28;8869;-88
2023/07/10 06:16:51;;;;;;;;;6.50;4.50;;;;;;;;5051322;28;8861;-88
2023/07/10 06:19:38;;;;;;;;;4.00;4.00;;;;;;;;5053607;28;8903;-88
2023/07/10 06:22:33;;;;;;;;;5.00;5.00;;;;;;;;5053603;28;8876;-87
2023/07/10 06:25:03;;;;;;;;;7.00;6.25;;;;;;;;5047211;28;8880;-90
2023/07/10 06:27:31;;;;;;;;;5.00;5.00;;;;;;;;5053782;28;8850;-90
2023/07/10 06:29:59;;;;;;;;;5.40;4.80;;;;;;;;5054091;28;8885;-90
2023/07/10 06:32:30;;;;;;;;;5.20;5.20;;;;;;;;5053013;28;8789;-89
2023/07/10 06:34:59;;;;;;;;;5.20;5.20;;;;;;;;5053506;28;8869;-89
2023/07/10 06:37:27;;;;;;;;;6.40;5.00;;;;;;;;5053643;28;8838;-88
2023/07/10 06:40:13;;;;;;;;;4.40;3.20;;;;;;;;5054721;28;8904;-89
2023/07/10 06:42:45;;;;;;;;;6.80;6.80;;;;;;;;5054106;28;8850;-86
2023/07/10 06:45:13;;;;;;;;;7.60;6.00;;;;;;;;5053774;28;8968;-88
2023/07/10 06:47:41;;;;;;;;;6.00;6.00;;;;;;;;5053215;28;8866;-84
2023/07/10 06:50:12;;;;;;;;;5.00;5.00;;;;;;;;5054764;28;8904;-88
2023/07/10 06:52:41;;;;;;;;;5.00;5.00;;;;;;;;5054229;28;8882;-84
2023/07/10 06:55:11;;;;;;;;;6.00;4.40;;;;;;;;5052499;28;8871;-83
2023/07/10 06:57:39;;;;;;;;;7.40;7.00;;;;;;;;5053113;28;8873;-85
2023/07/10 07:00:09;;;;;;;;;4.80;4.80;;;;;;;;5052875;28;8853;-86
2023/07/10 07:02:37;;;;;;;;;4.00;4.00;;;;;;;;5053019;28;8883;-87
2023/07/10 07:05:05;;;;;;;;;8.60;7.00;;;;;;;;5051636;28;9632;-83
2023/07/10 07:07:34;;;;;;;;;5.80;5.80;;;;;;;;5052035;28;8970;-80
2023/07/10 07:10:01;;;;;;;;;5.80;4.80;;;;;;;;5050920;28;8853;-80
2023/07/10 07:12:29;;;;;;;;;9.80;6.20;;;;;;;;5051781;28;8865;-75
2023/07/10 07:14:56;;;;;;;;;5.40;5.40;;;;;;;;5051588;28;8861;-80
2023/07/10 07:17:23;;;;;;;;;6.60;6.60;;;;;;;;5051312;28;8861;-76
2023/07/10 07:19:50;;;;;;;;;5.80;5.80;;;;;;;;5050704;28;8866;-77
2023/07/10 07:22:20;;;;;;;;;7.00;5.00;;;;;;;;5050914;28;8943;-76
2023/07/10 07:24:49;;;;;;;;;7.40;7.40;;;;;;;;5050682;28;8865;-75
2023/07/10 07:27:16;;;;;;;;;7.20;6.80;;;;;;;;5050890;28;8857;-76
2023/07/10 07:29:44;;;;;;;;;5.40;5.40;;;;;;;;5051199;28;8943;-75
2023/07/10 07:32:12;;;;;;;;;9.00;7.80;;;;;;;;5052728;28;8789;-76
2023/07/10 07:34:39;;;;;;;;;8.00;5.80;;;;;;;;5052901;28;8861;-77
2023/07/10 07:37:07;;;;;;;;;5.20;5.20;;;;;;;;5053008;28;8853;-76
2023/07/10 07:39:34;;;;;;;;;12.00;8.20;;;;;;;;5052164;28;8865;-80
2023/07/10 07:42:02;;;;;;;;;6.20;6.20;;;;;;;;5051613;28;8980;-80
2023/07/10 07:44:30;;;;;;;;;5.40;5.40;;;;;;;;5051388;28;8865;-78
2023/07/10 07:46:58;;;;;;;;;6.40;6.40;;;;;;;;5050523;28;8869;-80
2023/07/10 07:49:26;;;;;;;;;5.60;5.60;;;;;;;;5050253;28;8919;-80
2023/07/10 07:51:53;;;;;;;;;6.00;6.00;;;;;;;;5050311;28;8871;-79
2023/07/10 07:54:21;;;;;;;;;6.40;6.00;;;;;;;;5050534;28;8884;-79
2023/07/10 07:56:48;;;;;;;;;5.80;5.80;;;;;;;;5050251;28;8980;-78
2023/07/10 07:59:22;;;;;;;;;9.60;7.00;;;;;;;;5050293;28;9008;-78
2023/07/10 08:01:50;;;;;;;;;6.40;6.40;;;;;;;;5049741;28;8778;-78
2023/07/10 08:04:18;;;;;;;;;5.20;5.20;;;;;;;;5050002;28;8862;-78
2023/07/10 08:06:48;;;;;;;;;7.80;6.00;;;;;;;;5050276;28;8984;-78
2023/07/10 08:09:16;;;;;;;;;5.20;4.80;;;;;;;;5050704;28;8869;-78
2023/07/10 08:11:45;;;;;;;;;7.00;7.00;;;;;;;;5050749;28;8846;-76
2023/07/10 08:14:12;;;;;;;;;5.80;5.80;;;;;;;;5051832;28;8857;-77
2023/07/10 08:16:41;;;;;;;;;8.80;8.80;;;;;;;;5050413;28;8857;-77
2023/07/10 08:19:08;;;;;;;;;8.60;8.00;;;;;;;;5049826;28;8868;-77
2023/07/10 08:21:35;;;;;;;;;5.60;5.60;;;;;;;;5049567;28;8996;-77
2023/07/10 08:24:03;;;;;;;;;4.80;4.80;;;;;;;;5050173;28;8885;-77
2023/07/10 08:26:31;;;;;;;;;4.40;4.40;;;;;;;;5050302;28;8854;-76
2023/07/10 08:28:58;;;;;;;;;5.80;5.40;;;;;;;;5049813;28;8873;-77
2023/07/10 08:31:26;;;;;;;;;4.20;4.20;;;;;;;;5049368;28;8816;-79
2023/07/10 08:33:55;;;;;;;;;4.20;4.20;;;;;;;;5049322;28;9437;-79
2023/07/10 08:36:22;;;;;;;;;3.60;3.60;;;;;;;;5049846;28;8960;-79
2023/07/10 08:38:49;;;;;;;;;4.20;4.20;;;;;;;;5049321;28;8850;-80
2023/07/10 08:41:20;;;;;;;;;10.20;4.60;;;;;;;;5050082;28;8845;-81
2023/07/10 08:43:48;;;;;;;;;5.00;5.00;;;;;;;;5049606;28;9118;-79
2023/07/10 08:46:19;;;;;;;;;3.60;3.60;;;;;;;;5049647;28;8857;-76
2023/07/10 08:48:52;;;;;;;;;5.40;4.40;;;;;;;;5049531;28;8881;-81
2023/07/10 08:51:39;;;;;;;;;5.20;5.20;;;;;;;;5050194;28;8861;-82
2023/07/10 08:54:09;;;;;;;;;3.20;3.20;;;;;;;;5050177;28;8923;-81
2023/07/10 08:56:42;;;;;;;;;3.40;3.20;;;;;;;;5050279;28;8927;-83
2023/07/10 08:59:18;;;;;;;;;2.40;2.40;;;;;;;;5050507;28;8853;-83
2023/07/10 09:01:47;;;;;;;;;3.40;3.40;;;;;;;;5049772;28;8864;-85
2023/07/10 09:04:16;;;;;;;;;3.40;3.20;;;;;;;;5051541;28;8855;-85
2023/07/10 09:06:48;;;;;;;;;0.80;0.80;;;;;;;;5052713;28;8964;-81
2023/07/10 09:09:36;;;;;;;;;2.80;2.80;;;;;;;;5052841;28;8858;-82
2023/07/10 09:12:06;;;;;;;;;1.00;1.00;;;;;;;;5053930;28;8849;-80
2023/07/10 09:14:42;;;;;;;;;3.00;1.80;;;;;;;;5052477;28;8916;-82
2023/07/10 09:17:18;;;;;;;;;2.00;2.00;;;;;;;;5050174;28;8873;-85
2023/07/10 09:19:53;;;;;;;;;1.40;1.00;;;;;;;;5051516;28;8849;-87
2023/07/10 09:22:25;;;;;;;;;0.00;0.00;;;;;;;;5052747;28;8884;-84
2023/07/10 09:24:55;;;;;;;;;1.80;0.00;;;;;;;;5050685;28;8857;-84
2023/07/10 09:27:25;;;;;;;;;4.20;1.80;;;;;;;;5049861;28;8915;-85
2023/07/10 09:29:54;;;;;;;;;2.80;1.00;;;;;;;;5049216;28;9692;-88
2023/07/10 09:32:24;;;;;;;;;1.00;1.00;;;;;;;;5049456;28;8801;-87
2023/07/10 09:34:54;;;;;;;;;0.00;0.00;;;;;;;;5049448;28;8858;-88
2023/07/10 09:37:32;;;;;;;;;1.00;1.00;;;;;;;;5049608;28;9640;-87
2023/07/10 09:40:00;;;;;;;;;1.00;1.00;;;;;;;;5049394;28;9019;-88
2023/07/10 09:42:32;;;;;;;;;0.00;0.00;;;;;;;;5049873;28;8901;-89
2023/07/10 09:45:03;;;;;;;;;0.80;0.00;;;;;;;;5049303;28;8895;-82
2023/07/10 09:47:40;;;;;;;;;1.00;1.00;;;;;;;;5050063;28;8846;-83
2023/07/10 09:50:16;;;;;;;;;0.00;0.00;;;;;;;;5050201;28;9672;-81
2023/07/10 09:52:52;;;;;;;;;1.00;1.00;;;;;;;;5052144;28;8849;-80
2023/07/10 09:55:19;;;;;;;;;1.00;1.00;;;;;;;;5054610;28;8980;-79
2023/07/10 09:57:54;;;;;;;;;2.00;0.00;;;;;;;;5053875;28;8991;-82
2023/07/10 10:00:22;;;;;;;;;1.60;0.40;;;;;;;;5053174;28;8912;-78
2023/07/10 10:02:55;;;;;;;;;2.80;1.00;;;;;;;;5055306;28;8884;-83
2023/07/10 10:05:23;;;;;;;;;2.20;0.80;;;;;;;;5033638;28;8840;-80
2023/07/10 10:07:52;;;;;;;;;0.60;0.00;;;;;;;;5033392;28;8863;-84
2023/07/10 10:10:23;;;;;;;;;1.40;0.00;;;;;;;;5033559;28;8860;-85
2023/07/10 10:12:58;;;;;;;;;0.00;0.00;;;;;;;;5033456;28;9046;-87
2023/07/10 10:15:37;;;;;;;;;1.00;1.00;;;;;;;;5033174;28;8867;-89
2023/07/10 10:18:07;;;;;;;;;0.00;0.00;;;;;;;;5033573;28;8974;-84
2023/07/10 10:20:41;;;;;;;;;0.00;0.00;;;;;;;;5033775;28;8859;-84
2023/07/10 10:23:23;;;;;;;;;0.40;0.00;;;;;;;;5031846;28;9650;-82
2023/07/10 10:25:54;;;;;;;;;0.00;0.00;;;;;;;;5032840;28;8864;-81
2023/07/10 10:28:27;;;;;;;;;0.20;0.00;;;;;;;;5033954;28;8856;-86
2023/07/10 10:30:59;;;;;;;;;0.20;0.20;;;;;;;;5033724;28;8800;-82
2023/07/10 10:33:31;;;;;;;;;0.80;0.80;;;;;;;;5033060;28;8868;-84
2023/07/10 10:36:00;;;;;;;;;1.00;1.00;;;;;;;;5034039;28;8884;-81
2023/07/10 10:38:42;;;;;;;;;1.00;1.00;;;;;;;;5035008;28;8903;-82
2023/07/10 10:41:50;;;;;;;;;0.00;0.00;;;;;;;;5036658;28;8868;-81
2023/07/10 10:44:35;;;;;;;;;0.60;0.60;;;;;;;;5032210;28;8882;-81
2023/07/10 10:47:26;;;;;;;;;1.60;0.20;;;;;;;;5034563;28;8852;-83
2023/07/10 10:50:15;;;;;;;;;1.00;1.00;;;;;;;;5032390;28;8862;-85
2023/07/10 10:52:54;;;;;;;;;2.40;1.00;;;;;;;;5032035;28;8856;-82
2023/07/10 10:55:34;;;;;;;;;1.40;1.40;;;;;;;;5031700;28;8888;-82
2023/07/10 10:58:20;;;;;;;;;2.20;1.00;;;;;;;;5032018;28;8978;-80
2023/07/10 11:01:06;;;;;;;;;0.80;0.80;;;;;;;;5031548;28;8803;-83
2023/07/10 11:03:36;;;;;;;;;0.80;0.80;;;;;;;;5037445;28;8857;-83
2023/07/10 11:06:29;;;;;;;;;0.40;0.40;;;;;;;;5052019;28;8829;-82
2023/07/10 11:08:59;;;;;;;;;1.00;1.00;;;;;;;;5051626;28;9646;-79
2023/07/10 11:11:31;;;;;;;;;0.00;0.00;;;;;;;;5051559;28;8972;-79
2023/07/10 11:14:00;;;;;;;;;1.00;1.00;;;;;;;;5051982;28;8883;-82
2023/07/10 11:16:31;;;;;;;;;0.20;0.20;;;;;;;;5051548;28;8971;-86
2023/07/10 11:18:59;;;;;;;;;0.40;0.40;;;;;;;;5054376;28;8869;-86
2023/07/10 11:21:27;;;;;;;;;1.40;1.40;;;;;;;;5053107;28;8868;-82
2023/07/10 11:23:54;;;;;;;;;0.80;0.00;;;;;;;;5053997;28;8884;-83
2023/07/10 11:26:24;;;;;;;;;1.00;1.00;;;;;;;;5051849;28;9008;-81
2023/07/10 11:28:54;;;;;;;;;3.60;1.60;;;;;;;;5051945;28;8846;-86
2023/07/10 11:31:28;;;;;;;;;0.00;0.00;;;;;;;;5052146;28;8778;-82
2023/07/10 11:34:31;;;;;;;;;2.20;1.00;;;;;;;;5051945;28;8861;-81
2023/07/10 11:36:59;;;;;;;;;1.00;1.00;;;;;;;;5051495;28;8865;-83
2023/07/10 11:39:33;;;;;;;;;1.00;1.00;;;;;;;;5052976;28;8869;-81
2023/07/10 11:42:17;;;;;;;;;0.80;0.80;;;;;;;;5053591;28;8870;-82
2023/07/10 11:44:54;;;;;;;;;0.00;0.00;;;;;;;;5052759;28;8876;-82
2023/07/10 11:47:27;;;;;;;;;1.00;1.00;;;;;;;;5051815;28;8984;-83
2023/07/10 11:50:17;;;;;;;;;0.60;0.60;;;;;;;;5050952;28;8972;-81
2023/07/10 11:52:49;;;;;;;;;0.40;0.40;;;;;;;;5051673;28;8849;-81
2023/07/10 11:55:28;;;;;;;;;1.00;0.00;;;;;;;;5050984;28;9058;-81
2023/07/10 11:58:25;;;;;;;;;1.00;1.00;;;;;;;;5050701;28;8841;-82
2023/07/10 12:00:59;;;;;;;;;0.00;0.00;;;;;;;;5050061;28;8893;-79
2023/07/10 12:03:26;;;;;;;;;0.00;0.00;;;;;;;;5051255;28;8849;-79
2023/07/10 12:05:53;;;;;;;;;0.40;0.40;;;;;;;;5050939;28;8857;-80
2023/07/10 12:08:25;;;;;;;;;0.60;0.60;;;;;;;;5050585;28;8885;-80
2023/07/10 12:10:52;;;;;;;;;0.00;0.00;;;;;;;;5050649;28;8984;-81
2023/07/10 12:13:22;;;;;;;;;0.00;0.00;;;;;;;;5051479;28;8968;-81
2023/07/10 12:15:53;;;;;;;;;0.00;0.00;;;;;;;;5051615;28;8884;-80
2023/07/10 12:18:25;;;;;;;;;1.60;0.00;;;;;;;;5052612;28;8876;-81
2023/07/10 12:20:54;;;;;;;;;0.00;0.00;;;;;;;;5052161;28;8918;-80
2023/07/10 12:23:24;;;;;;;;;0.00;0.00;;;;;;;;5051101;28;8958;-80
2023/07/10 12:25:55;;;;;;;;;1.00;0.00;;;;;;;;5050146;28;8849;-82
2023/07/10 12:28:26;;;;;;;;;2.80;0.00;;;;;;;;5050318;28;8858;-83
2023/07/10 12:30:56;;;;;;;;;0.00;0.00;;;;;;;;5049217;28;8782;-83
2023/07/10 12:33:37;;;;;;;;;0.00;0.00;;;;;;;;5050054;28;8862;-82
2023/07/10 12:36:15;;;;;;;;;0.00;0.00;;;;;;;;5051120;28;8850;-84
2023/07/10 12:38:42;;;;;;;;;0.00;0.00;;;;;;;;5050405;28;8980;-84
2023/07/10 12:41:11;;;;;;;;;0.00;0.00;;;;;;;;5051990;28;8877;-87
2023/07/10 12:43:38;;;;;;;;;2.60;0.80;;;;;;;;5053875;28;8950;-81
2023/07/10 12:46:15;;;;;;;;;0.00;0.00;;;;;;;;5055316;28;8903;-84
2023/07/10 12:48:43;;;;;;;;;0.40;0.00;;;;;;;;5051461;28;8884;-83
2023/07/10 12:51:20;;;;;;;;;0.00;0.00;;;;;;;;5051018;28;9009;-81
2023/07/10 12:53:48;;;;;;;;;1.80;0.00;;;;;;;;5049953;28;8857;-83
2023/07/10 12:56:29;;;;;;;;;1.80;0.20;;;;;;;;5049752;28;8861;-84
2023/07/10 12:58:58;;;;;;;;;0.00;0.00;;;;;;;;5049711;28;8877;-81
2023/07/10 13:01:32;;;;;;;;;0.00;0.00;;;;;;;;5049618;28;8778;-83
2023/07/10 13:04:07;;;;;;;;;0.00;0.00;;;;;;;;5049334;28;8849;-83
2023/07/10 13:06:37;;;;;;;;;0.00;0.00;;;;;;;;5049747;28;8983;-83
2023/07/10 13:09:08;;;;;;;;;0.40;0.00;;;;;;;;5049906;28;9606;-84
2023/07/10 13:11:38;;;;;;;;;0.00;0.00;;;;;;;;5050265;28;8857;-84
2023/07/10 13:14:07;;;;;;;;;0.00;0.00;;;;;;;;5050598;28;8968;-85
2023/07/10 13:16:45;;;;;;;;;0.00;0.00;;;;;;;;5050812;28;8861;-89
2023/07/10 13:19:15;;;;;;;;;0.00;0.00;;;;;;;;5050909;28;8841;-86
2023/07/10 13:21:44;;;;;;;;;0.00;0.00;;;;;;;;5052046;28;8976;-85
2023/07/10 13:24:14;;;;;;;;;0.00;0.00;;;;;;;;5051512;28;8857;-84
2023/07/10 13:26:49;;;;;;;;;1.40;0.00;;;;;;;;5049619;28;8857;-84
2023/07/10 13:29:18;;;;;;;;;0.00;0.00;;;;;;;;5052222;28;8943;-82
2023/07/10 13:31:48;;;;;;;;;0.00;0.00;;;;;;;;5049596;28;8900;-82
2023/07/10 13:34:15;;;;;;;;;0.00;0.00;;;;;;;;5049727;28;8865;-82
2023/07/10 13:36:43;;;;;;;;;0.00;0.00;;;;;;;;5049357;28;8866;-83
2023/07/10 13:39:18;;;;;;;;;0.80;0.80;;;;;;;;5049642;28;8895;-82
2023/07/10 13:41:46;;;;;;;;;0.00;0.00;;;;;;;;5049019;28;8869;-82
2023/07/10 13:44:13;;;;;;;;;0.00;0.00;;;;;;;;5049580;28;8865;-82
2023/07/10 13:46:41;;;;;;;;;0.00;0.00;;;;;;;;5050243;28;8877;-84
2023/07/10 13:49:15;;;;;;;;;0.00;0.00;;;;;;;;5050968;28;8870;-83
2023/07/10 13:51:43;;;;;;;;;0.00;0.00;;;;;;;;5052672;28;8854;-84
2023/07/10 13:54:13;;;;;;;;;0.60;0.00;;;;;;;;5052881;28;8877;-82
2023/07/10 13:56:44;;;;;;;;;1.00;1.00;;;;;;;;5052999;28;9256;-82
2023/07/10 13:59:15;;;;;;;;;0.00;0.00;;;;;;;;5051117;28;8853;-85
2023/07/10 14:01:43;;;;;;;;;0.00;0.00;;;;;;;;5049757;28;8923;-84
2023/07/10 14:04:12;;;;;;;;;0.00;0.00;;;;;;;;5049721;28;8885;-82
2023/07/10 14:06:45;;;;;;;;;0.00;0.00;;;;;;;;5049567;28;8857;-82
2023/07/10 14:09:15;;;;;;;;;1.00;1.00;;;;;;;;5049815;28;8854;-83
2023/07/10 14:11:42;;;;;;;;;1.00;1.00;;;;;;;;5049153;28;8857;-83
2023/07/10 14:14:15;;;;;;;;;0.00;0.00;;;;;;;;5049323;28;8995;-83
2023/07/10 14:16:42;;;;;;;;;0.00;0.00;;;;;;;;5048866;28;8862;-83
2023/07/10 14:19:15;;;;;;;;;0.00;0.00;;;;;;;;5048890;28;8864;-83
2023/07/10 14:21:43;;;;;;;;;0.00;0.00;;;;;;;;5049005;28;8857;-84
2023/07/10 14:24:10;;;;;;;;;0.40;0.40;;;;;;;;5049169;28;8865;-84
2023/07/10 14:26:39;;;;;;;;;0.00;0.00;;;;;;;;5049167;28;8869;-81
2023/07/10 14:29:09;;;;;;;;;0.00;0.00;;;;;;;;5049078;28;8849;-83
2023/07/10 14:31:39;;;;;;;;;0.00;0.00;;;;;;;;5048919;28;8789;-83
2023/07/10 14:34:09;;;;;;;;;1.00;1.00;;;;;;;;5049512;28;8849;-83
2023/07/10 14:36:40;;;;;;;;;0.00;0.00;;;;;;;;5049341;28;8980;-85
2023/07/10 14:39:10;;;;;;;;;0.00;0.00;;;;;;;;5053534;28;8895;-84
2023/07/10 14:41:39;;;;;;;;;0.00;0.00;;;;;;;;5055116;28;9846;-82
2023/07/10 14:44:06;;;;;;;;;1.00;0.00;;;;;;;;5055653;28;8865;-82
2023/07/10 14:46:35;;;;;;;;;0.00;0.00;;;;;;;;5057727;28;8872;-85
2023/07/10 14:49:11;;;;;;;;;0.00;0.00;;;;;;;;5056005;28;9000;-82
2023/07/10 14:51:40;;;;;;;;;0.00;0.00;;;;;;;;5056074;28;8854;-84
2023/07/10 14:54:13;;;;;;;;;0.00;0.00;;;;;;;;5054144;28;8861;-84
2023/07/10 14:56:40;;;;;;;;;0.60;0.00;;;;;;;;5053061;28;8861;-84
2023/07/10 14:59:12;;;;;;;;;0.00;0.00;;;;;;;;5052322;28;8845;-82
2023/07/10 15:01:40;;;;;;;;;0.00;0.00;;;;;;;;5051760;28;8793;-86
2023/07/10 15:04:07;;;;;;;;;0.40;0.40;;;;;;;;5052685;28;8853;-79
2023/07/10 15:06:41;;;;;;;;;0.00;0.00;;;;;;;;5052214;28;8860;-83
2023/07/10 15:09:14;;;;;;;;;0.20;0.00;;;;;;;;5051791;28;9704;-82
2023/07/10 15:11:41;;;;;;;;;0.00;0.00;;;;;;;;5051474;28;8842;-81
2023/07/10 15:14:11;;;;;;;;;0.00;0.00;;;;;;;;5051793;28;8982;-82
2023/07/10 15:16:39;;;;;;;;;0.00;0.00;;;;;;;;5052584;28;8850;-84
2023/07/10 15:19:09;;;;;;;;;0.00;0.00;;;;;;;;5052910;28;8857;-83